Estación Meteorológica Peña el Pijo (Robertgarden) [ 12/10/18 12:04:49 CET ]

Fecha Hora Presion(HPa) Temp (°C) Humedad % Rocio (°C) Viento ( m/s) Direccion Lluvia 1Hora(mm) Lluvia 24H(mm) LLuvia Total(mm)
2018-Jun-09 01:01:57 1007.100 12.0 76 7.9         266.25
2018-Jun-09 02:01:54 1006.700 10.9 80 7.6         266.25
2018-Jun-09 03:03:09 1006.100 10.2 82 7.2         266.25
2018-Jun-09 04:01:41 1005.800 9.5 83 6.7         266.25
2018-Jun-09 05:01:48 1005.600 9.5 84 6.9         266.25
2018-Jun-09 06:01:49 1005.600 8.9 84 6.3         266.25
2018-Jun-09 07:01:49 1005.300 8.4 85 6.0         266.25
2018-Jun-09 08:01:38 1005.300 9.5 87 7.4         266.25
2018-Jun-09 09:02:09 1005.300 15.3 88 13.3         266.25
2018-Jun-09 10:01:44 1005.400 19.0 72 13.8         266.25
2018-Jun-09 11:01:34 1005.300 20.9 55 11.5         266.25
2018-Jun-09 12:01:55 1005.500 22.8 52 12.4         266.25
2018-Jun-09 13:01:32 1005.100 26.8 39 11.7         266.25
2018-Jun-09 14:01:34 1005.300 23.3 49 12.0         266.25
2018-Jun-09 15:01:43 1004.700 25.8 42 11.9         266.25
2018-Jun-09 16:01:57 1004.100 26.5 41 12.2         266.25
2018-Jun-09 17:01:51 1004.000 23.3 48 11.6         266.25
2018-Jun-09 18:02:06 1004.300 20.9 57 12.1         266.25
2018-Jun-09 19:01:41 1004.400 20.2 60 12.2         266.25
2018-Jun-09 20:01:56 1004.700 20.4 59 12.1         266.25
2018-Jun-09 21:01:34 1005.200 18.6 63 11.4         266.25
2018-Jun-09 22:01:37 1005.700 17.1 66 10.7         266.25
2018-Jun-09 23:01:53 1006.300 16.1 69 10.5         266.25

Temperatura Máxima:26°    Temperatura Mínima:
Presión Máxima:1007.100 Hpa    Presión Mínima:1004.000 Hpa


Volver